sensor_id;sensor_type;location;lat;lon;timestamp;P1;durP1;ratioP1;P2;durP2;ratioP2
37715;SDS011;23562;50.540;12.504;2023-02-26T00:02:08;5.50;;;3.03;;
37715;SDS011;23562;50.540;12.504;2023-02-26T00:04:34;3.60;;;2.40;;
37715;SDS011;23562;50.540;12.504;2023-02-26T00:06:59;4.25;;;2.38;;
37715;SDS011;23562;50.540;12.504;2023-02-26T00:09:25;6.63;;;2.90;;
37715;SDS011;23562;50.540;12.504;2023-02-26T00:11:50;6.73;;;2.30;;
37715;SDS011;23562;50.540;12.504;2023-02-26T00:14:15;7.35;;;2.63;;
37715;SDS011;23562;50.540;12.504;2023-02-26T00:16:41;6.15;;;2.63;;
37715;SDS011;23562;50.540;12.504;2023-02-26T00:19:07;3.72;;;2.58;;
37715;SDS011;23562;50.540;12.504;2023-02-26T00:21:33;7.07;;;2.90;;
37715;SDS011;23562;50.540;12.504;2023-02-26T00:23:58;10.52;;;3.10;;
37715;SDS011;23562;50.540;12.504;2023-02-26T00:26:26;5.10;;;3.08;;
37715;SDS011;23562;50.540;12.504;2023-02-26T00:28:51;8.20;;;2.88;;
37715;SDS011;23562;50.540;12.504;2023-02-26T00:31:17;6.15;;;3.70;;
37715;SDS011;23562;50.540;12.504;2023-02-26T00:33:44;4.90;;;2.63;;
37715;SDS011;23562;50.540;12.504;2023-02-26T00:38:41;6.22;;;2.55;;
37715;SDS011;23562;50.540;12.504;2023-02-26T00:41:08;4.07;;;2.42;;
37715;SDS011;23562;50.540;12.504;2023-02-26T00:43:34;5.97;;;2.80;;
37715;SDS011;23562;50.540;12.504;2023-02-26T00:46:09;8.35;;;2.65;;
37715;SDS011;23562;50.540;12.504;2023-02-26T00:51:31;6.80;;;2.70;;
37715;SDS011;23562;50.540;12.504;2023-02-26T00:56:25;6.97;;;2.70;;
37715;SDS011;23562;50.540;12.504;2023-02-26T00:58:50;8.38;;;3.30;;
37715;SDS011;23562;50.540;12.504;2023-02-26T01:01:15;5.72;;;2.80;;
37715;SDS011;23562;50.540;12.504;2023-02-26T01:03:41;5.13;;;2.88;;
37715;SDS011;23562;50.540;12.504;2023-02-26T01:06:09;5.25;;;2.53;;
37715;SDS011;23562;50.540;12.504;2023-02-26T01:08:38;5.45;;;2.45;;
37715;SDS011;23562;50.540;12.504;2023-02-26T01:11:06;6.07;;;2.60;;
37715;SDS011;23562;50.540;12.504;2023-02-26T01:13:31;6.53;;;2.45;;
37715;SDS011;23562;50.540;12.504;2023-02-26T01:16:01;7.00;;;2.80;;
37715;SDS011;23562;50.540;12.504;2023-02-26T01:18:31;4.55;;;2.58;;
37715;SDS011;23562;50.540;12.504;2023-02-26T01:21:01;5.72;;;2.90;;
37715;SDS011;23562;50.540;12.504;2023-02-26T01:23:28;6.97;;;2.83;;
37715;SDS011;23562;50.540;12.504;2023-02-26T01:25:56;5.18;;;2.90;;
37715;SDS011;23562;50.540;12.504;2023-02-26T01:28:22;7.88;;;3.13;;
37715;SDS011;23562;50.540;12.504;2023-02-26T01:30:48;4.20;;;2.78;;
37715;SDS011;23562;50.540;12.504;2023-02-26T01:35:52;7.80;;;3.78;;
37715;SDS011;23562;50.540;12.504;2023-02-26T01:38:22;7.22;;;3.97;;
37715;SDS011;23562;50.540;12.504;2023-02-26T01:48:58;4.72;;;3.65;;
37715;SDS011;23562;50.540;12.504;2023-02-26T01:54:08;4.93;;;3.00;;
37715;SDS011;23562;50.540;12.504;2023-02-26T01:56:33;5.13;;;3.33;;
37715;SDS011;23562;50.540;12.504;2023-02-26T01:58:58;7.75;;;3.40;;
37715;SDS011;23562;50.540;12.504;2023-02-26T02:01:24;5.13;;;3.28;;
37715;SDS011;23562;50.540;12.504;2023-02-26T02:03:49;5.63;;;3.20;;
37715;SDS011;23562;50.540;12.504;2023-02-26T02:06:24;5.00;;;3.08;;
37715;SDS011;23562;50.540;12.504;2023-02-26T02:08:50;5.63;;;3.60;;
37715;SDS011;23562;50.540;12.504;2023-02-26T02:11:16;6.03;;;3.35;;
37715;SDS011;23562;50.540;12.504;2023-02-26T02:16:16;5.75;;;3.20;;
37715;SDS011;23562;50.540;12.504;2023-02-26T02:18:47;5.03;;;2.97;;
37715;SDS011;23562;50.540;12.504;2023-02-26T02:24:03;4.18;;;3.38;;
37715;SDS011;23562;50.540;12.504;2023-02-26T02:26:37;6.78;;;3.60;;
37715;SDS011;23562;50.540;12.504;2023-02-26T02:29:17;5.18;;;3.25;;
37715;SDS011;23562;50.540;12.504;2023-02-26T02:34:28;5.68;;;3.67;;
37715;SDS011;23562;50.540;12.504;2023-02-26T02:36:58;4.82;;;2.85;;
37715;SDS011;23562;50.540;12.504;2023-02-26T02:39:29;5.07;;;3.80;;
37715;SDS011;23562;50.540;12.504;2023-02-26T02:42:00;4.13;;;3.17;;
37715;SDS011;23562;50.540;12.504;2023-02-26T02:44:27;4.35;;;3.05;;
37715;SDS011;23562;50.540;12.504;2023-02-26T02:46:54;5.30;;;3.45;;
37715;SDS011;23562;50.540;12.504;2023-02-26T02:49:21;4.35;;;2.97;;
37715;SDS011;23562;50.540;12.504;2023-02-26T02:51:53;4.65;;;3.00;;
37715;SDS011;23562;50.540;12.504;2023-02-26T02:54:22;5.68;;;2.85;;
37715;SDS011;23562;50.540;12.504;2023-02-26T02:56:49;4.57;;;2.58;;
37715;SDS011;23562;50.540;12.504;2023-02-26T02:59:20;3.35;;;2.35;;
37715;SDS011;23562;50.540;12.504;2023-02-26T03:01:47;4.55;;;2.80;;
37715;SDS011;23562;50.540;12.504;2023-02-26T03:04:13;3.17;;;2.40;;
37715;SDS011;23562;50.540;12.504;2023-02-26T03:06:40;29.75;;;11.20;;
37715;SDS011;23562;50.540;12.504;2023-02-26T03:09:06;2.78;;;2.22;;
37715;SDS011;23562;50.540;12.504;2023-02-26T03:11:32;4.50;;;2.45;;
37715;SDS011;23562;50.540;12.504;2023-02-26T03:13:57;3.67;;;2.17;;
37715;SDS011;23562;50.540;12.504;2023-02-26T03:21:35;4.25;;;2.30;;
37715;SDS011;23562;50.540;12.504;2023-02-26T03:24:06;4.32;;;2.70;;
37715;SDS011;23562;50.540;12.504;2023-02-26T03:26:35;4.88;;;2.40;;
37715;SDS011;23562;50.540;12.504;2023-02-26T03:29:04;3.95;;;2.70;;
37715;SDS011;23562;50.540;12.504;2023-02-26T03:31:34;5.55;;;3.00;;
37715;SDS011;23562;50.540;12.504;2023-02-26T03:34:03;3.78;;;2.80;;
37715;SDS011;23562;50.540;12.504;2023-02-26T03:36:35;3.53;;;2.55;;
37715;SDS011;23562;50.540;12.504;2023-02-26T03:39:04;3.95;;;2.50;;
37715;SDS011;23562;50.540;12.504;2023-02-26T03:41:33;3.97;;;2.33;;
37715;SDS011;23562;50.540;12.504;2023-02-26T03:44:06;3.40;;;2.75;;
37715;SDS011;23562;50.540;12.504;2023-02-26T03:46:34;4.53;;;2.55;;
37715;SDS011;23562;50.540;12.504;2023-02-26T03:49:00;5.18;;;2.70;;
37715;SDS011;23562;50.540;12.504;2023-02-26T03:51:26;3.40;;;2.80;;
37715;SDS011;23562;50.540;12.504;2023-02-26T03:53:54;3.42;;;2.55;;
37715;SDS011;23562;50.540;12.504;2023-02-26T03:56:28;2.53;;;2.33;;
37715;SDS011;23562;50.540;12.504;2023-02-26T03:58:54;3.03;;;2.70;;
37715;SDS011;23562;50.540;12.504;2023-02-26T04:01:22;3.22;;;2.53;;
37715;SDS011;23562;50.540;12.504;2023-02-26T04:03:49;4.35;;;3.15;;
37715;SDS011;23562;50.540;12.504;2023-02-26T04:06:17;3.30;;;2.53;;
37715;SDS011;23562;50.540;12.504;2023-02-26T04:08:44;3.50;;;2.70;;
37715;SDS011;23562;50.540;12.504;2023-02-26T04:11:16;5.43;;;2.80;;
37715;SDS011;23562;50.540;12.504;2023-02-26T04:13:42;4.10;;;3.00;;
37715;SDS011;23562;50.540;12.504;2023-02-26T04:16:07;4.18;;;3.30;;
37715;SDS011;23562;50.540;12.504;2023-02-26T04:18:32;4.63;;;2.95;;
37715;SDS011;23562;50.540;12.504;2023-02-26T04:20:58;3.60;;;3.00;;
37715;SDS011;23562;50.540;12.504;2023-02-26T04:23:23;4.03;;;3.35;;
37715;SDS011;23562;50.540;12.504;2023-02-26T04:25:48;4.32;;;2.80;;
37715;SDS011;23562;50.540;12.504;2023-02-26T04:28:13;5.33;;;2.73;;
37715;SDS011;23562;50.540;12.504;2023-02-26T04:30:38;5.85;;;2.75;;
37715;SDS011;23562;50.540;12.504;2023-02-26T04:33:03;4.45;;;3.03;;
37715;SDS011;23562;50.540;12.504;2023-02-26T04:35:28;5.20;;;3.15;;
37715;SDS011;23562;50.540;12.504;2023-02-26T04:37:54;4.53;;;2.95;;
37715;SDS011;23562;50.540;12.504;2023-02-26T04:40:19;6.05;;;3.30;;
37715;SDS011;23562;50.540;12.504;2023-02-26T04:42:44;6.78;;;3.88;;
37715;SDS011;23562;50.540;12.504;2023-02-26T04:45:09;5.97;;;3.65;;
37715;SDS011;23562;50.540;12.504;2023-02-26T04:47:34;6.55;;;3.80;;
37715;SDS011;23562;50.540;12.504;2023-02-26T04:50:00;5.45;;;3.92;;
37715;SDS011;23562;50.540;12.504;2023-02-26T04:52:25;6.10;;;4.28;;
37715;SDS011;23562;50.540;12.504;2023-02-26T04:54:50;6.78;;;4.35;;
37715;SDS011;23562;50.540;12.504;2023-02-26T04:57:15;7.57;;;4.25;;
37715;SDS011;23562;50.540;12.504;2023-02-26T04:59:40;6.75;;;4.35;;
37715;SDS011;23562;50.540;12.504;2023-02-26T05:02:06;6.60;;;4.00;;
37715;SDS011;23562;50.540;12.504;2023-02-26T05:04:31;6.20;;;4.10;;
37715;SDS011;23562;50.540;12.504;2023-02-26T05:06:56;8.88;;;4.32;;
37715;SDS011;23562;50.540;12.504;2023-02-26T05:09:21;8.73;;;4.55;;
37715;SDS011;23562;50.540;12.504;2023-02-26T05:11:46;6.25;;;4.50;;
37715;SDS011;23562;50.540;12.504;2023-02-26T05:14:12;7.28;;;4.57;;
37715;SDS011;23562;50.540;12.504;2023-02-26T05:16:37;7.53;;;4.63;;
37715;SDS011;23562;50.540;12.504;2023-02-26T05:19:03;6.85;;;4.75;;
37715;SDS011;23562;50.540;12.504;2023-02-26T05:21:28;10.02;;;4.13;;
37715;SDS011;23562;50.540;12.504;2023-02-26T05:23:53;7.73;;;4.23;;
37715;SDS011;23562;50.540;12.504;2023-02-26T05:26:18;6.53;;;4.28;;
37715;SDS011;23562;50.540;12.504;2023-02-26T05:28:43;8.30;;;5.35;;
37715;SDS011;23562;50.540;12.504;2023-02-26T05:31:09;7.97;;;5.07;;
37715;SDS011;23562;50.540;12.504;2023-02-26T05:33:35;8.35;;;4.95;;
37715;SDS011;23562;50.540;12.504;2023-02-26T05:36:01;10.43;;;6.07;;
37715;SDS011;23562;50.540;12.504;2023-02-26T05:38:26;9.40;;;5.63;;
37715;SDS011;23562;50.540;12.504;2023-02-26T05:40:54;8.02;;;5.97;;
37715;SDS011;23562;50.540;12.504;2023-02-26T05:43:20;9.60;;;5.80;;
37715;SDS011;23562;50.540;12.504;2023-02-26T05:45:45;11.90;;;6.18;;
37715;SDS011;23562;50.540;12.504;2023-02-26T05:48:13;9.02;;;5.10;;
37715;SDS011;23562;50.540;12.504;2023-02-26T05:50:38;10.00;;;6.03;;
37715;SDS011;23562;50.540;12.504;2023-02-26T05:53:03;10.75;;;5.80;;
37715;SDS011;23562;50.540;12.504;2023-02-26T05:55:29;12.27;;;6.80;;
37715;SDS011;23562;50.540;12.504;2023-02-26T05:57:54;9.70;;;5.53;;
37715;SDS011;23562;50.540;12.504;2023-02-26T06:00:19;6.53;;;4.40;;
37715;SDS011;23562;50.540;12.504;2023-02-26T06:02:45;6.57;;;4.53;;
37715;SDS011;23562;50.540;12.504;2023-02-26T06:05:10;7.30;;;4.35;;
37715;SDS011;23562;50.540;12.504;2023-02-26T06:07:35;5.93;;;3.95;;
37715;SDS011;23562;50.540;12.504;2023-02-26T06:10:02;6.88;;;4.30;;
37715;SDS011;23562;50.540;12.504;2023-02-26T06:12:27;7.35;;;4.63;;
37715;SDS011;23562;50.540;12.504;2023-02-26T06:14:52;6.10;;;4.07;;
37715;SDS011;23562;50.540;12.504;2023-02-26T06:17:17;6.85;;;3.78;;
37715;SDS011;23562;50.540;12.504;2023-02-26T06:19:43;5.85;;;4.30;;
37715;SDS011;23562;50.540;12.504;2023-02-26T06:22:09;8.13;;;4.05;;
37715;SDS011;23562;50.540;12.504;2023-02-26T06:24:34;6.72;;;4.00;;
37715;SDS011;23562;50.540;12.504;2023-02-26T06:26:59;6.10;;;4.28;;
37715;SDS011;23562;50.540;12.504;2023-02-26T06:29:24;7.22;;;4.20;;
37715;SDS011;23562;50.540;12.504;2023-02-26T06:31:50;8.75;;;4.43;;
37715;SDS011;23562;50.540;12.504;2023-02-26T06:34:15;6.43;;;4.00;;
37715;SDS011;23562;50.540;12.504;2023-02-26T06:36:41;8.75;;;5.05;;
37715;SDS011;23562;50.540;12.504;2023-02-26T06:39:06;7.27;;;4.43;;
37715;SDS011;23562;50.540;12.504;2023-02-26T06:41:31;7.22;;;4.63;;
37715;SDS011;23562;50.540;12.504;2023-02-26T06:43:57;9.03;;;5.97;;
37715;SDS011;23562;50.540;12.504;2023-02-26T06:46:22;8.55;;;5.30;;
37715;SDS011;23562;50.540;12.504;2023-02-26T06:48:47;19.25;;;9.25;;
37715;SDS011;23562;50.540;12.504;2023-02-26T06:51:12;13.82;;;8.15;;
37715;SDS011;23562;50.540;12.504;2023-02-26T06:53:37;14.45;;;8.32;;
37715;SDS011;23562;50.540;12.504;2023-02-26T06:56:02;14.27;;;7.88;;
37715;SDS011;23562;50.540;12.504;2023-02-26T06:58:29;12.73;;;7.38;;
37715;SDS011;23562;50.540;12.504;2023-02-26T07:00:54;14.55;;;8.07;;
37715;SDS011;23562;50.540;12.504;2023-02-26T07:03:19;11.93;;;6.97;;
37715;SDS011;23562;50.540;12.504;2023-02-26T07:05:46;9.05;;;6.28;;
37715;SDS011;23562;50.540;12.504;2023-02-26T07:08:11;9.63;;;6.15;;
37715;SDS011;23562;50.540;12.504;2023-02-26T07:10:37;9.85;;;6.07;;
37715;SDS011;23562;50.540;12.504;2023-02-26T07:13:03;10.70;;;6.68;;
37715;SDS011;23562;50.540;12.504;2023-02-26T07:15:28;10.30;;;6.63;;
37715;SDS011;23562;50.540;12.504;2023-02-26T07:17:53;12.37;;;7.13;;
37715;SDS011;23562;50.540;12.504;2023-02-26T07:20:18;13.65;;;6.93;;
37715;SDS011;23562;50.540;12.504;2023-02-26T07:22:43;12.88;;;6.32;;
37715;SDS011;23562;50.540;12.504;2023-02-26T07:25:09;16.58;;;5.93;;
37715;SDS011;23562;50.540;12.504;2023-02-26T07:27:34;8.88;;;5.55;;
37715;SDS011;23562;50.540;12.504;2023-02-26T07:29:59;12.83;;;6.37;;
37715;SDS011;23562;50.540;12.504;2023-02-26T07:32:25;17.97;;;7.57;;
37715;SDS011;23562;50.540;12.504;2023-02-26T07:34:50;9.55;;;5.55;;
37715;SDS011;23562;50.540;12.504;2023-02-26T07:37:15;13.45;;;7.72;;
37715;SDS011;23562;50.540;12.504;2023-02-26T07:39:40;11.43;;;5.88;;
37715;SDS011;23562;50.540;12.504;2023-02-26T07:42:06;9.80;;;5.53;;
37715;SDS011;23562;50.540;12.504;2023-02-26T07:44:31;11.57;;;6.50;;
37715;SDS011;23562;50.540;12.504;2023-02-26T07:46:56;8.70;;;6.20;;
37715;SDS011;23562;50.540;12.504;2023-02-26T07:49:21;9.95;;;6.07;;
37715;SDS011;23562;50.540;12.504;2023-02-26T07:51:46;9.02;;;5.85;;
37715;SDS011;23562;50.540;12.504;2023-02-26T07:54:12;10.80;;;5.60;;
37715;SDS011;23562;50.540;12.504;2023-02-26T07:56:38;8.35;;;5.85;;
37715;SDS011;23562;50.540;12.504;2023-02-26T07:59:03;11.93;;;6.25;;
37715;SDS011;23562;50.540;12.504;2023-02-26T08:01:29;12.38;;;6.78;;
37715;SDS011;23562;50.540;12.504;2023-02-26T08:03:54;11.43;;;5.97;;
37715;SDS011;23562;50.540;12.504;2023-02-26T08:06:19;10.27;;;6.87;;
37715;SDS011;23562;50.540;12.504;2023-02-26T08:08:44;14.03;;;7.93;;
37715;SDS011;23562;50.540;12.504;2023-02-26T08:11:09;13.65;;;7.57;;
37715;SDS011;23562;50.540;12.504;2023-02-26T08:13:34;10.63;;;7.22;;
37715;SDS011;23562;50.540;12.504;2023-02-26T08:15:59;9.80;;;6.57;;
37715;SDS011;23562;50.540;12.504;2023-02-26T08:18:25;8.82;;;6.38;;
37715;SDS011;23562;50.540;12.504;2023-02-26T08:20:50;9.55;;;6.32;;
37715;SDS011;23562;50.540;12.504;2023-02-26T08:23:16;8.55;;;5.53;;
37715;SDS011;23562;50.540;12.504;2023-02-26T08:25:41;10.13;;;6.07;;
37715;SDS011;23562;50.540;12.504;2023-02-26T08:28:06;10.57;;;5.67;;
37715;SDS011;23562;50.540;12.504;2023-02-26T08:30:31;10.93;;;5.87;;
37715;SDS011;23562;50.540;12.504;2023-02-26T08:32:57;11.15;;;5.82;;
37715;SDS011;23562;50.540;12.504;2023-02-26T08:35:22;11.45;;;7.03;;
37715;SDS011;23562;50.540;12.504;2023-02-26T08:37:47;18.45;;;9.52;;
37715;SDS011;23562;50.540;12.504;2023-02-26T08:40:12;11.40;;;7.67;;
37715;SDS011;23562;50.540;12.504;2023-02-26T08:42:37;13.25;;;6.25;;
37715;SDS011;23562;50.540;12.504;2023-02-26T08:45:03;11.32;;;5.57;;
37715;SDS011;23562;50.540;12.504;2023-02-26T08:47:28;10.25;;;5.18;;
37715;SDS011;23562;50.540;12.504;2023-02-26T08:49:53;12.30;;;5.73;;
37715;SDS011;23562;50.540;12.504;2023-02-26T08:52:19;10.55;;;5.95;;
37715;SDS011;23562;50.540;12.504;2023-02-26T08:54:44;10.13;;;7.25;;
37715;SDS011;23562;50.540;12.504;2023-02-26T08:57:09;12.55;;;8.00;;
37715;SDS011;23562;50.540;12.504;2023-02-26T08:59:34;15.20;;;11.82;;
37715;SDS011;23562;50.540;12.504;2023-02-26T09:01:59;20.63;;;13.98;;
37715;SDS011;23562;50.540;12.504;2023-02-26T09:04:24;9.70;;;5.47;;
37715;SDS011;23562;50.540;12.504;2023-02-26T09:06:50;9.23;;;4.82;;
37715;SDS011;23562;50.540;12.504;2023-02-26T09:09:16;7.70;;;4.72;;
37715;SDS011;23562;50.540;12.504;2023-02-26T09:11:41;9.05;;;4.93;;
37715;SDS011;23562;50.540;12.504;2023-02-26T09:14:06;8.35;;;4.00;;
37715;SDS011;23562;50.540;12.504;2023-02-26T09:16:32;7.55;;;3.70;;
37715;SDS011;23562;50.540;12.504;2023-02-26T09:19:00;8.57;;;4.60;;
37715;SDS011;23562;50.540;12.504;2023-02-26T09:21:25;11.00;;;5.07;;
37715;SDS011;23562;50.540;12.504;2023-02-26T09:23:50;8.37;;;4.97;;
37715;SDS011;23562;50.540;12.504;2023-02-26T09:26:16;10.85;;;4.88;;
37715;SDS011;23562;50.540;12.504;2023-02-26T09:28:41;7.67;;;4.80;;
37715;SDS011;23562;50.540;12.504;2023-02-26T09:31:06;14.23;;;5.97;;
37715;SDS011;23562;50.540;12.504;2023-02-26T09:33:32;14.98;;;8.80;;
37715;SDS011;23562;50.540;12.504;2023-02-26T09:35:57;12.68;;;7.30;;
37715;SDS011;23562;50.540;12.504;2023-02-26T09:38:22;14.50;;;7.65;;
37715;SDS011;23562;50.540;12.504;2023-02-26T09:40:49;12.27;;;6.77;;
37715;SDS011;23562;50.540;12.504;2023-02-26T09:46:22;18.88;;;8.48;;
37715;SDS011;23562;50.540;12.504;2023-02-26T09:48:48;11.63;;;6.75;;
37715;SDS011;23562;50.540;12.504;2023-02-26T09:51:16;24.38;;;9.23;;
37715;SDS011;23562;50.540;12.504;2023-02-26T09:53:43;19.35;;;7.22;;
37715;SDS011;23562;50.540;12.504;2023-02-26T09:56:18;5.47;;;4.20;;
37715;SDS011;23562;50.540;12.504;2023-02-26T09:58:45;24.05;;;12.52;;
37715;SDS011;23562;50.540;12.504;2023-02-26T10:06:49;9.88;;;5.43;;
37715;SDS011;23562;50.540;12.504;2023-02-26T10:14:30;6.57;;;3.90;;
37715;SDS011;23562;50.540;12.504;2023-02-26T10:16:59;6.43;;;3.47;;
37715;SDS011;23562;50.540;12.504;2023-02-26T10:19:26;9.68;;;4.30;;
37715;SDS011;23562;50.540;12.504;2023-02-26T10:21:57;12.73;;;4.53;;
37715;SDS011;23562;50.540;12.504;2023-02-26T10:24:25;8.77;;;3.78;;
37715;SDS011;23562;50.540;12.504;2023-02-26T10:26:54;5.47;;;2.75;;
37715;SDS011;23562;50.540;12.504;2023-02-26T10:34:38;7.10;;;3.10;;
37715;SDS011;23562;50.540;12.504;2023-02-26T10:39:35;6.00;;;2.20;;
37715;SDS011;23562;50.540;12.504;2023-02-26T10:42:04;5.75;;;2.85;;
37715;SDS011;23562;50.540;12.504;2023-02-26T10:44:33;5.15;;;2.25;;
37715;SDS011;23562;50.540;12.504;2023-02-26T10:47:04;10.88;;;3.38;;
37715;SDS011;23562;50.540;12.504;2023-02-26T10:49:51;8.05;;;3.15;;
37715;SDS011;23562;50.540;12.504;2023-02-26T10:52:18;6.60;;;2.35;;
37715;SDS011;23562;50.540;12.504;2023-02-26T10:54:45;9.00;;;3.50;;
37715;SDS011;23562;50.540;12.504;2023-02-26T10:57:17;5.38;;;2.25;;
37715;SDS011;23562;50.540;12.504;2023-02-26T10:59:44;5.53;;;2.22;;
37715;SDS011;23562;50.540;12.504;2023-02-26T11:02:16;3.95;;;2.30;;
37715;SDS011;23562;50.540;12.504;2023-02-26T11:04:48;7.30;;;2.28;;
37715;SDS011;23562;50.540;12.504;2023-02-26T11:07:14;6.70;;;2.20;;
37715;SDS011;23562;50.540;12.504;2023-02-26T11:09:42;3.55;;;2.20;;
37715;SDS011;23562;50.540;12.504;2023-02-26T11:14:36;7.20;;;2.30;;
37715;SDS011;23562;50.540;12.504;2023-02-26T11:17:03;4.30;;;1.80;;
37715;SDS011;23562;50.540;12.504;2023-02-26T11:19:32;7.47;;;2.78;;
37715;SDS011;23562;50.540;12.504;2023-02-26T11:21:59;3.42;;;1.83;;
37715;SDS011;23562;50.540;12.504;2023-02-26T11:24:36;8.43;;;2.33;;
37715;SDS011;23562;50.540;12.504;2023-02-26T11:27:05;9.32;;;2.95;;
37715;SDS011;23562;50.540;12.504;2023-02-26T11:29:34;5.88;;;2.10;;
37715;SDS011;23562;50.540;12.504;2023-02-26T11:32:00;7.32;;;1.90;;
37715;SDS011;23562;50.540;12.504;2023-02-26T11:34:26;11.40;;;3.22;;
37715;SDS011;23562;50.540;12.504;2023-02-26T11:36:54;5.93;;;2.60;;
37715;SDS011;23562;50.540;12.504;2023-02-26T11:39:21;6.22;;;2.53;;
37715;SDS011;23562;50.540;12.504;2023-02-26T11:41:47;6.22;;;2.63;;
37715;SDS011;23562;50.540;12.504;2023-02-26T11:46:42;7.43;;;2.53;;
37715;SDS011;23562;50.540;12.504;2023-02-26T11:49:09;11.70;;;5.38;;
37715;SDS011;23562;50.540;12.504;2023-02-26T11:51:35;9.80;;;4.72;;
37715;SDS011;23562;50.540;12.504;2023-02-26T11:54:00;5.10;;;2.60;;
37715;SDS011;23562;50.540;12.504;2023-02-26T11:56:44;4.72;;;2.45;;
37715;SDS011;23562;50.540;12.504;2023-02-26T11:59:17;7.20;;;2.40;;
37715;SDS011;23562;50.540;12.504;2023-02-26T12:01:42;6.43;;;2.33;;
37715;SDS011;23562;50.540;12.504;2023-02-26T12:04:08;5.10;;;2.50;;
37715;SDS011;23562;50.540;12.504;2023-02-26T12:06:34;8.10;;;2.67;;
37715;SDS011;23562;50.540;12.504;2023-02-26T12:08:59;7.60;;;3.50;;
37715;SDS011;23562;50.540;12.504;2023-02-26T12:16:49;6.93;;;2.63;;
37715;SDS011;23562;50.540;12.504;2023-02-26T12:19:51;4.68;;;2.67;;
37715;SDS011;23562;50.540;12.504;2023-02-26T12:22:19;6.55;;;2.30;;
37715;SDS011;23562;50.540;12.504;2023-02-26T12:25:34;7.57;;;2.33;;
37715;SDS011;23562;50.540;12.504;2023-02-26T12:27:48;8.18;;;4.13;;
37715;SDS011;23562;50.540;12.504;2023-02-26T12:30:30;7.70;;;3.30;;
37715;SDS011;23562;50.540;12.504;2023-02-26T12:33:03;5.93;;;1.83;;
37715;SDS011;23562;50.540;12.504;2023-02-26T12:38:24;5.15;;;2.60;;
37715;SDS011;23562;50.540;12.504;2023-02-26T12:43:24;7.72;;;2.97;;
37715;SDS011;23562;50.540;12.504;2023-02-26T12:45:53;11.57;;;3.65;;
37715;SDS011;23562;50.540;12.504;2023-02-26T12:48:38;8.07;;;3.13;;
37715;SDS011;23562;50.540;12.504;2023-02-26T12:58:47;5.30;;;2.90;;
37715;SDS011;23562;50.540;12.504;2023-02-26T13:01:23;4.35;;;2.97;;
37715;SDS011;23562;50.540;12.504;2023-02-26T13:06:39;4.97;;;2.83;;
37715;SDS011;23562;50.540;12.504;2023-02-26T13:11:46;6.57;;;2.75;;
37715;SDS011;23562;50.540;12.504;2023-02-26T13:14:24;4.35;;;2.53;;
37715;SDS011;23562;50.540;12.504;2023-02-26T13:16:53;7.38;;;2.92;;
37715;SDS011;23562;50.540;12.504;2023-02-26T13:19:28;8.00;;;2.92;;
37715;SDS011;23562;50.540;12.504;2023-02-26T13:21:56;9.75;;;4.55;;
37715;SDS011;23562;50.540;12.504;2023-02-26T13:24:23;45.53;;;13.88;;
37715;SDS011;23562;50.540;12.504;2023-02-26T13:26:50;53.75;;;16.05;;
37715;SDS011;23562;50.540;12.504;2023-02-26T13:29:24;20.25;;;9.10;;
37715;SDS011;23562;50.540;12.504;2023-02-26T13:32:00;20.13;;;9.80;;
37715;SDS011;23562;50.540;12.504;2023-02-26T13:37:20;20.88;;;10.30;;
37715;SDS011;23562;50.540;12.504;2023-02-26T13:39:49;12.20;;;4.43;;
37715;SDS011;23562;50.540;12.504;2023-02-26T13:42:25;4.82;;;2.70;;
37715;SDS011;23562;50.540;12.504;2023-02-26T13:44:54;6.93;;;2.88;;
37715;SDS011;23562;50.540;12.504;2023-02-26T13:47:28;4.90;;;2.80;;
37715;SDS011;23562;50.540;12.504;2023-02-26T13:52:50;10.82;;;4.65;;
37715;SDS011;23562;50.540;12.504;2023-02-26T13:55:34;6.53;;;2.72;;
37715;SDS011;23562;50.540;12.504;2023-02-26T13:58:05;9.90;;;4.05;;
37715;SDS011;23562;50.540;12.504;2023-02-26T14:00:41;8.90;;;4.53;;
37715;SDS011;23562;50.540;12.504;2023-02-26T14:03:11;10.45;;;5.20;;
37715;SDS011;23562;50.540;12.504;2023-02-26T14:08:23;7.72;;;3.88;;
37715;SDS011;23562;50.540;12.504;2023-02-26T14:13:30;7.93;;;2.90;;
37715;SDS011;23562;50.540;12.504;2023-02-26T14:16:02;4.70;;;2.90;;
37715;SDS011;23562;50.540;12.504;2023-02-26T14:18:35;3.88;;;2.15;;
37715;SDS011;23562;50.540;12.504;2023-02-26T14:23:45;4.32;;;1.63;;
37715;SDS011;23562;50.540;12.504;2023-02-26T14:26:14;3.30;;;1.50;;
37715;SDS011;23562;50.540;12.504;2023-02-26T14:28:42;3.13;;;1.95;;
37715;SDS011;23562;50.540;12.504;2023-02-26T14:31:12;3.55;;;1.73;;
37715;SDS011;23562;50.540;12.504;2023-02-26T14:33:39;10.57;;;3.70;;
37715;SDS011;23562;50.540;12.504;2023-02-26T14:36:08;6.95;;;3.00;;
37715;SDS011;23562;50.540;12.504;2023-02-26T14:38:38;6.78;;;2.97;;
37715;SDS011;23562;50.540;12.504;2023-02-26T14:41:10;3.78;;;2.30;;
37715;SDS011;23562;50.540;12.504;2023-02-26T14:43:38;4.18;;;2.47;;
37715;SDS011;23562;50.540;12.504;2023-02-26T14:46:05;3.35;;;2.20;;
37715;SDS011;23562;50.540;12.504;2023-02-26T14:48:30;7.95;;;4.40;;
37715;SDS011;23562;50.540;12.504;2023-02-26T14:56:15;5.90;;;2.60;;
37715;SDS011;23562;50.540;12.504;2023-02-26T15:01:19;5.18;;;3.03;;
37715;SDS011;23562;50.540;12.504;2023-02-26T15:03:54;8.45;;;3.70;;
37715;SDS011;23562;50.540;12.504;2023-02-26T15:06:32;8.20;;;4.30;;
37715;SDS011;23562;50.540;12.504;2023-02-26T15:09:05;11.45;;;5.85;;
37715;SDS011;23562;50.540;12.504;2023-02-26T15:11:43;8.73;;;4.20;;
37715;SDS011;23562;50.540;12.504;2023-02-26T15:14:30;9.30;;;4.07;;
37715;SDS011;23562;50.540;12.504;2023-02-26T15:22:17;15.18;;;6.72;;
37715;SDS011;23562;50.540;12.504;2023-02-26T15:24:46;5.68;;;3.50;;
37715;SDS011;23562;50.540;12.504;2023-02-26T15:27:13;6.97;;;4.30;;
37715;SDS011;23562;50.540;12.504;2023-02-26T15:29:39;4.35;;;3.35;;
37715;SDS011;23562;50.540;12.504;2023-02-26T15:32:12;7.53;;;4.55;;
37715;SDS011;23562;50.540;12.504;2023-02-26T15:34:41;7.88;;;3.40;;
37715;SDS011;23562;50.540;12.504;2023-02-26T15:37:14;7.68;;;3.80;;
37715;SDS011;23562;50.540;12.504;2023-02-26T15:39:41;4.72;;;2.92;;
37715;SDS011;23562;50.540;12.504;2023-02-26T15:42:07;5.28;;;3.20;;
37715;SDS011;23562;50.540;12.504;2023-02-26T15:44:33;7.40;;;3.08;;
37715;SDS011;23562;50.540;12.504;2023-02-26T15:47:00;5.07;;;2.50;;
37715;SDS011;23562;50.540;12.504;2023-02-26T15:49:27;10.35;;;3.95;;
37715;SDS011;23562;50.540;12.504;2023-02-26T15:51:55;5.82;;;3.20;;
37715;SDS011;23562;50.540;12.504;2023-02-26T15:54:22;7.43;;;3.30;;
37715;SDS011;23562;50.540;12.504;2023-02-26T15:56:47;5.68;;;3.42;;
37715;SDS011;23562;50.540;12.504;2023-02-26T15:59:17;7.15;;;4.20;;
37715;SDS011;23562;50.540;12.504;2023-02-26T16:01:43;12.98;;;4.15;;
37715;SDS011;23562;50.540;12.504;2023-02-26T16:04:12;34.25;;;13.60;;
37715;SDS011;23562;50.540;12.504;2023-02-26T16:06:39;6.95;;;3.47;;
37715;SDS011;23562;50.540;12.504;2023-02-26T16:09:05;8.60;;;4.45;;
37715;SDS011;23562;50.540;12.504;2023-02-26T16:11:32;9.57;;;5.30;;
37715;SDS011;23562;50.540;12.504;2023-02-26T16:13:59;8.90;;;4.80;;
37715;SDS011;23562;50.540;12.504;2023-02-26T16:16:28;11.63;;;5.35;;
37715;SDS011;23562;50.540;12.504;2023-02-26T16:18:58;8.32;;;5.53;;
37715;SDS011;23562;50.540;12.504;2023-02-26T16:21:28;12.13;;;5.70;;
37715;SDS011;23562;50.540;12.504;2023-02-26T16:23:54;15.70;;;7.20;;
37715;SDS011;23562;50.540;12.504;2023-02-26T16:26:24;16.75;;;7.07;;